createdAt,value
2019-04-29T00:00:35.550Z,25.72
2019-04-29T00:03:05.917Z,24.10
2019-04-29T00:05:35.867Z,22.45
2019-04-29T00:08:05.821Z,21.65
2019-04-29T00:10:35.944Z,20.75
2019-04-29T00:13:06.042Z,18.90
2019-04-29T00:15:53.219Z,21.87
2019-04-29T00:18:27.700Z,22.55
2019-04-29T00:20:57.780Z,22.85
2019-04-29T00:23:27.829Z,21.27
2019-04-29T00:25:57.940Z,20.75
2019-04-29T00:28:28.918Z,18.73
2019-04-29T00:30:59.515Z,18.77
2019-04-29T00:33:29.444Z,18.23
2019-04-29T00:35:59.373Z,17.48
2019-04-29T00:38:31.067Z,19.77
2019-04-29T00:41:05.646Z,18.70
2019-04-29T00:43:55.812Z,17.55
2019-04-29T00:46:25.809Z,19.95
2019-04-29T00:48:55.809Z,18.65
2019-04-29T00:51:25.747Z,19.60
2019-04-29T00:53:57.421Z,16.77
2019-04-29T00:56:27.371Z,17.52
2019-04-29T00:58:57.335Z,17.20
2019-04-29T01:01:27.392Z,15.60
2019-04-29T01:03:57.369Z,18.10
2019-04-29T01:06:27.394Z,16.27
2019-04-29T01:08:57.409Z,18.37
2019-04-29T01:11:27.452Z,16.12
2019-04-29T01:13:57.426Z,18.27
2019-04-29T01:16:27.622Z,15.85
2019-04-29T01:18:57.587Z,16.93
2019-04-29T01:21:27.587Z,16.10
2019-04-29T01:23:57.841Z,16.02
2019-04-29T01:26:36.095Z,15.08
2019-04-29T01:29:07.801Z,15.20
2019-04-29T01:31:37.782Z,14.65
2019-04-29T01:34:09.443Z,16.60
2019-04-29T01:36:44.611Z,15.50
2019-04-29T01:39:15.733Z,15.63
2019-04-29T01:41:50.375Z,15.38
2019-04-29T01:44:22.027Z,13.08
2019-04-29T01:46:52.145Z,14.23
2019-04-29T01:49:22.152Z,13.32
2019-04-29T01:51:52.170Z,10.80
2019-04-29T01:54:23.309Z,13.43
2019-04-29T01:56:53.378Z,12.73
2019-04-29T01:59:23.535Z,11.88
2019-04-29T02:01:53.708Z,13.72
2019-04-29T02:04:23.790Z,14.50
2019-04-29T02:06:53.916Z,12.60
2019-04-29T02:09:28.356Z,15.03
2019-04-29T02:11:58.377Z,13.30
2019-04-29T02:14:28.354Z,13.20
2019-04-29T02:16:58.439Z,14.58
2019-04-29T02:19:28.476Z,16.10
2019-04-29T02:22:09.416Z,13.75
2019-04-29T02:24:47.201Z,14.83
2019-04-29T02:27:17.234Z,14.75
2019-04-29T02:29:47.367Z,13.65
2019-04-29T02:32:17.362Z,15.78
2019-04-29T02:34:47.312Z,13.90
2019-04-29T02:37:18.924Z,12.00
2019-04-29T02:39:50.881Z,12.00
2019-04-29T02:42:40.958Z,11.50
2019-04-29T02:45:12.971Z,13.60
2019-04-29T02:47:42.998Z,13.55
2019-04-29T02:50:13.668Z,13.05
2019-04-29T02:52:43.661Z,14.33
2019-04-29T02:55:15.583Z,13.55
2019-04-29T02:58:02.342Z,12.88
2019-04-29T03:00:34.013Z,13.75
2019-04-29T03:03:08.714Z,13.40
2019-04-29T03:05:43.160Z,12.60
2019-04-29T03:08:13.142Z,13.30
2019-04-29T03:10:43.275Z,14.93
2019-04-29T03:13:13.299Z,13.98
2019-04-29T03:15:43.702Z,12.35
2019-04-29T03:18:13.803Z,12.82
2019-04-29T03:20:45.580Z,13.18
2019-04-29T03:23:17.184Z,11.78
2019-04-29T03:25:48.675Z,11.25
2019-04-29T03:28:18.677Z,12.03
2019-04-29T03:30:48.752Z,11.90
2019-04-29T03:33:18.851Z,12.23
2019-04-29T03:35:49.923Z,10.98
2019-04-29T03:38:19.982Z,12.28
2019-04-29T03:40:50.024Z,14.43
2019-04-29T03:43:20.043Z,12.85
2019-04-29T03:45:50.143Z,15.93
2019-04-29T03:48:20.143Z,13.85
2019-04-29T03:50:50.093Z,13.90
2019-04-29T03:53:19.874Z,15.23
2019-04-29T03:55:51.408Z,14.78
2019-04-29T03:58:21.413Z,15.48
2019-04-29T04:00:53.017Z,17.20
2019-04-29T04:03:30.754Z,15.93
2019-04-29T04:06:11.324Z,19.23
2019-04-29T04:09:04.324Z,20.12
2019-04-29T04:11:17.380Z,17.62
2019-04-29T04:13:47.417Z,20.88
2019-04-29T04:16:19.068Z,17.25
2019-04-29T04:18:49.127Z,19.40
2019-04-29T04:21:19.159Z,23.40
2019-04-29T04:23:49.116Z,21.37
2019-04-29T04:26:19.081Z,22.17
2019-04-29T04:28:49.136Z,23.25
2019-04-29T04:31:19.167Z,22.85
2019-04-29T04:33:49.473Z,23.57
2019-04-29T04:36:19.554Z,23.98
2019-04-29T04:38:49.580Z,22.32
2019-04-29T04:41:19.616Z,22.13
2019-04-29T04:43:49.887Z,21.90
2019-04-29T04:46:19.852Z,23.40
2019-04-29T04:48:49.823Z,23.75
2019-04-29T04:51:19.801Z,21.12
2019-04-29T04:53:49.808Z,20.17
2019-04-29T04:56:19.858Z,21.80
2019-04-29T04:58:49.861Z,24.20
2019-04-29T05:01:19.809Z,25.23
2019-04-29T05:03:50.004Z,23.15
2019-04-29T05:06:20.054Z,24.07
2019-04-29T05:08:50.276Z,22.42
2019-04-29T05:11:20.319Z,23.80
2019-04-29T05:13:50.350Z,22.82
2019-04-29T05:16:20.311Z,21.65
2019-04-29T05:18:50.345Z,20.95
2019-04-29T05:21:20.288Z,18.40
2019-04-29T05:23:50.250Z,19.02
2019-04-29T05:26:20.258Z,21.10
2019-04-29T05:28:50.611Z,20.90
2019-04-29T05:31:20.601Z,22.55
2019-04-29T05:33:50.583Z,19.75
2019-04-29T05:36:22.186Z,16.62
2019-04-29T05:38:53.863Z,19.10
2019-04-29T05:41:24.294Z,20.40
2019-04-29T05:44:13.577Z,19.42
2019-04-29T05:46:50.890Z,17.77
2019-04-29T05:49:22.572Z,17.52
2019-04-29T05:51:57.456Z,17.35
2019-04-29T05:54:31.598Z,16.95
2019-04-29T05:57:01.559Z,16.95
2019-04-29T05:59:31.508Z,17.23
2019-04-29T06:02:01.742Z,19.92
2019-04-29T06:04:31.727Z,20.12
2019-04-29T06:07:08.935Z,19.30
2019-04-29T06:09:38.914Z,20.30
2019-04-29T06:12:08.994Z,20.40
2019-04-29T06:14:39.070Z,19.82
2019-04-29T06:17:09.014Z,19.98
2019-04-29T06:19:40.730Z,17.87
2019-04-29T06:22:10.644Z,16.90
2019-04-29T06:24:41.103Z,17.35
2019-04-29T06:27:12.287Z,18.73
2019-04-29T06:29:42.234Z,20.70
2019-04-29T06:32:13.723Z,19.42
2019-04-29T06:34:43.656Z,19.98
2019-04-29T06:37:13.875Z,18.62
2019-04-29T06:39:43.816Z,20.90
2019-04-29T06:42:15.515Z,20.50
2019-04-29T06:44:48.929Z,20.80
2019-04-29T06:47:17.223Z,20.23
2019-04-29T06:49:47.772Z,17.02
2019-04-29T06:52:17.831Z,19.07
2019-04-29T06:54:47.800Z,16.07
2019-04-29T06:57:17.762Z,20.43
2019-04-29T06:59:48.653Z,14.15
2019-04-29T07:02:18.823Z,13.53
2019-04-29T07:04:48.829Z,12.55
2019-04-29T07:07:18.855Z,12.33
2019-04-29T07:09:48.927Z,12.15
2019-04-29T07:12:18.916Z,12.03
2019-04-29T07:14:49.260Z,11.97
2019-04-29T07:17:19.269Z,14.30
2019-04-29T07:19:49.304Z,11.08
2019-04-29T07:22:20.857Z,10.75
2019-04-29T07:24:50.992Z,12.70
2019-04-29T07:27:20.938Z,12.55
2019-04-29T07:29:51.034Z,12.68
2019-04-29T07:32:21.947Z,10.55
2019-04-29T07:34:51.908Z,10.75
2019-04-29T07:37:21.863Z,11.97
2019-04-29T07:39:51.963Z,12.00
2019-04-29T07:42:24.552Z,13.00
2019-04-29T07:45:11.799Z,13.50
2019-04-29T07:47:55.842Z,12.47
2019-04-29T07:50:17.179Z,13.10
2019-04-29T07:52:49.919Z,12.90
2019-04-29T07:55:19.983Z,9.28
2019-04-29T07:57:52.127Z,10.63
2019-04-29T08:00:24.861Z,10.70
2019-04-29T08:02:55.102Z,8.53
2019-04-29T08:05:25.184Z,10.08
2019-04-29T08:07:55.445Z,9.80
2019-04-29T08:10:28.556Z,10.40
2019-04-29T08:12:59.742Z,14.10
2019-04-29T08:15:31.843Z,12.45
2019-04-29T08:18:06.731Z,8.28
2019-04-29T08:20:35.463Z,8.80
2019-04-29T08:23:05.926Z,7.05
2019-04-29T08:25:35.871Z,6.40
2019-04-29T08:28:06.876Z,7.90
2019-04-29T08:30:36.911Z,7.33
2019-04-29T08:33:07.478Z,7.40
2019-04-29T08:35:38.468Z,8.58
2019-04-29T08:38:08.386Z,8.35
2019-04-29T08:40:38.320Z,8.13
2019-04-29T08:43:10.970Z,5.95
2019-04-29T08:45:42.619Z,6.65
2019-04-29T08:48:12.820Z,6.72
2019-04-29T08:50:42.907Z,6.60
2019-04-29T08:53:12.910Z,6.15
2019-04-29T08:55:42.942Z,6.37
2019-04-29T08:58:12.987Z,8.93
2019-04-29T09:00:43.276Z,6.90
2019-04-29T09:03:13.310Z,6.95
2019-04-29T09:05:46.163Z,7.00
2019-04-29T09:08:15.058Z,5.97
2019-04-29T09:10:45.039Z,7.50
2019-04-29T09:13:14.979Z,6.65
2019-04-29T09:15:44.957Z,6.10
2019-04-29T09:18:14.926Z,7.37
2019-04-29T09:20:44.938Z,6.30
2019-04-29T09:23:19.482Z,9.20
2019-04-29T09:26:06.176Z,8.55
2019-04-29T09:28:36.130Z,7.95
2019-04-29T09:31:06.098Z,6.87
2019-04-29T09:33:36.117Z,6.05
2019-04-29T09:36:09.581Z,8.18
2019-04-29T09:38:38.444Z,9.15
2019-04-29T09:41:12.885Z,8.18
2019-04-29T09:43:46.896Z,7.75
2019-04-29T09:46:18.732Z,11.50
2019-04-29T09:48:49.790Z,20.72
2019-04-29T09:51:22.652Z,16.55
2019-04-29T09:53:52.370Z,18.15
2019-04-29T09:56:22.374Z,20.00
2019-04-29T09:58:55.170Z,19.85
2019-04-29T10:01:26.763Z,21.27
2019-04-29T10:03:58.717Z,20.45
2019-04-29T10:06:30.324Z,22.77
2019-04-29T10:09:00.563Z,23.10
2019-04-29T10:11:32.157Z,26.80
2019-04-29T10:14:02.202Z,25.17
2019-04-29T10:16:37.176Z,28.55
2019-04-29T10:19:25.681Z,27.85
2019-04-29T10:21:55.746Z,28.00
2019-04-29T10:24:48.167Z,29.80
2019-04-29T10:27:18.263Z,27.37
2019-04-29T10:29:50.685Z,28.95
2019-04-29T10:32:22.899Z,30.37
2019-04-29T10:34:52.990Z,29.65
2019-04-29T10:37:29.510Z,28.00
2019-04-29T10:40:10.957Z,28.12
2019-04-29T10:42:53.571Z,30.37
2019-04-29T10:45:31.112Z,28.65
2019-04-29T10:48:05.162Z,33.80
2019-04-29T10:50:42.658Z,34.35
2019-04-29T10:53:15.528Z,30.20
2019-04-29T10:55:44.428Z,30.92
2019-04-29T10:58:14.481Z,30.55
2019-04-29T11:01:06.476Z,28.83
2019-04-29T11:03:36.600Z,34.95
2019-04-29T11:06:06.708Z,28.52
2019-04-29T11:08:47.453Z,33.55
2019-04-29T11:11:23.281Z,28.92
2019-04-29T11:13:50.656Z,35.00
2019-04-29T11:16:22.995Z,27.77
2019-04-29T11:18:54.918Z,31.52
2019-04-29T11:21:29.509Z,33.63
2019-04-29T11:23:58.823Z,29.95
2019-04-29T11:26:30.497Z,30.23
2019-04-29T11:29:01.378Z,32.60
2019-04-29T11:31:32.631Z,32.58
2019-04-29T11:34:19.374Z,29.12
2019-04-29T11:36:49.427Z,28.92
2019-04-29T11:39:19.370Z,30.48
2019-04-29T11:41:50.134Z,29.35
2019-04-29T11:44:21.857Z,28.90
2019-04-29T11:46:52.674Z,29.25
2019-04-29T11:49:24.361Z,30.88
2019-04-29T11:52:09.150Z,34.98
2019-04-29T11:54:26.204Z,30.10
2019-04-29T11:56:56.359Z,30.75
2019-04-29T11:59:30.799Z,31.12
2019-04-29T12:02:11.702Z,34.55
2019-04-29T12:04:52.273Z,37.20
2019-04-29T12:07:22.428Z,33.33
2019-04-29T12:09:52.837Z,37.67
2019-04-29T12:12:24.127Z,31.82
2019-04-29T12:14:55.739Z,31.50
2019-04-29T12:17:27.335Z,36.77
2019-04-29T12:20:04.992Z,35.50
2019-04-29T12:22:47.692Z,34.65
2019-04-29T12:25:07.482Z,31.57
2019-04-29T12:27:37.492Z,33.18
2019-04-29T12:30:09.814Z,29.55
2019-04-29T12:32:43.548Z,34.70
2019-04-29T12:35:30.216Z,32.33
2019-04-29T12:38:19.973Z,35.08
2019-04-29T12:40:55.028Z,39.35
2019-04-29T12:43:39.378Z,36.65
2019-04-29T12:46:22.907Z,37.70
2019-04-29T12:48:53.050Z,37.45
2019-04-29T12:51:23.720Z,41.08
2019-04-29T12:53:54.110Z,38.70
2019-04-29T12:56:37.701Z,39.13
2019-04-29T12:59:07.716Z,41.00
2019-04-29T13:01:51.240Z,40.12
2019-04-29T13:04:20.814Z,39.00
2019-04-29T13:06:55.431Z,46.18
2019-04-29T13:09:40.995Z,40.70
2019-04-29T13:12:19.003Z,39.33
2019-04-29T13:15:02.727Z,44.18
2019-04-29T13:17:44.910Z,43.15
2019-04-29T13:20:15.054Z,41.85
2019-04-29T13:22:45.180Z,43.13
2019-04-29T13:25:19.731Z,42.17
2019-04-29T13:27:47.627Z,38.67
2019-04-29T13:30:17.795Z,39.78
2019-04-29T13:33:16.569Z,43.02
2019-04-29T13:35:48.617Z,41.77
2019-04-29T13:38:14.728Z,35.88
2019-04-29T13:40:44.785Z,32.67
2019-04-29T13:43:14.743Z,32.80
2019-04-29T13:45:46.990Z,36.33
2019-04-29T13:48:54.156Z,36.05
2019-04-29T13:51:14.127Z,40.10
2019-04-29T13:53:44.462Z,39.85
2019-04-29T13:56:32.633Z,36.80
2019-04-29T13:58:46.453Z,31.70
2019-04-29T14:01:32.849Z,40.20
2019-04-29T14:04:00.418Z,37.50
2019-04-29T14:06:31.706Z,39.30
2019-04-29T14:09:03.904Z,40.70
2019-04-29T14:11:34.240Z,34.45
2019-04-29T14:14:04.803Z,31.52
2019-04-29T14:16:34.802Z,33.58
2019-04-29T14:19:04.946Z,36.35
2019-04-29T14:21:35.044Z,29.50
2019-04-29T14:24:05.233Z,28.20
2019-04-29T14:26:37.067Z,28.65
2019-04-29T14:29:07.080Z,31.23
2019-04-29T14:31:37.710Z,29.45
2019-04-29T14:34:09.347Z,27.17
2019-04-29T14:36:39.296Z,27.48
2019-04-29T14:39:12.964Z,29.30
2019-04-29T14:41:43.531Z,26.97
2019-04-29T14:44:18.207Z,24.30
2019-04-29T14:46:49.790Z,28.62
2019-04-29T14:49:21.573Z,26.73
2019-04-29T14:51:51.522Z,23.87
2019-04-29T14:54:21.931Z,24.05
2019-04-29T14:56:51.899Z,20.40
2019-04-29T14:59:22.056Z,23.80
2019-04-29T15:01:53.998Z,22.05
2019-04-29T15:04:25.887Z,22.42
2019-04-29T15:06:56.022Z,20.17
2019-04-29T15:09:26.164Z,19.95
2019-04-29T15:11:58.872Z,25.35
2019-04-29T15:14:31.338Z,19.75
2019-04-29T15:17:13.582Z,20.68
2019-04-29T15:19:55.295Z,20.50
2019-04-29T15:22:30.382Z,19.05
2019-04-29T15:25:00.396Z,22.60
2019-04-29T15:27:30.675Z,20.50
2019-04-29T15:30:00.821Z,19.73
2019-04-29T15:32:30.795Z,20.62
2019-04-29T15:35:00.823Z,17.73
2019-04-29T15:37:31.250Z,18.55
2019-04-29T15:40:01.363Z,20.08
2019-04-29T15:42:31.764Z,20.25
2019-04-29T15:45:01.718Z,19.52
2019-04-29T15:47:33.113Z,18.67
2019-04-29T15:50:18.167Z,20.35
2019-04-29T15:52:35.391Z,20.02
2019-04-29T15:55:06.098Z,21.65
2019-04-29T15:57:36.224Z,21.60
2019-04-29T16:00:21.599Z,17.90
2019-04-29T16:02:43.659Z,18.52
2019-04-29T16:05:15.342Z,22.58
2019-04-29T16:07:57.224Z,20.50
2019-04-29T16:10:31.445Z,21.42
2019-04-29T16:13:12.079Z,21.33
2019-04-29T16:15:42.050Z,21.48
2019-04-29T16:18:14.831Z,24.23
2019-04-29T16:20:45.241Z,22.17
2019-04-29T16:23:15.251Z,24.35
2019-04-29T16:25:50.108Z,24.12
2019-04-29T16:28:16.914Z,24.27
2019-04-29T16:30:46.888Z,24.67
2019-04-29T16:33:16.916Z,27.05
2019-04-29T16:35:47.142Z,25.45
2019-04-29T16:38:17.151Z,24.77
2019-04-29T16:40:48.904Z,27.00
2019-04-29T16:43:27.492Z,27.87
2019-04-29T16:46:06.525Z,26.90
2019-04-29T16:48:39.527Z,29.70
2019-04-29T16:51:14.058Z,27.62
2019-04-29T16:53:41.441Z,28.62
2019-04-29T16:56:16.068Z,26.52
2019-04-29T16:58:43.413Z,28.80
2019-04-29T17:01:13.499Z,23.77
2019-04-29T17:03:43.564Z,26.85
2019-04-29T17:06:13.614Z,26.60
2019-04-29T17:09:04.968Z,29.60
2019-04-29T17:11:41.556Z,28.45
2019-04-29T17:14:13.035Z,30.82
2019-04-29T17:16:43.247Z,29.10
2019-04-29T17:19:13.213Z,28.35
2019-04-29T17:21:43.249Z,31.05
2019-04-29T17:24:13.036Z,32.90
2019-04-29T17:26:44.607Z,31.17
2019-04-29T17:29:38.563Z,33.23
2019-04-29T17:32:05.132Z,35.38
2019-04-29T17:34:58.438Z,33.10
2019-04-29T17:37:09.150Z,37.15
2019-04-29T17:39:39.175Z,39.20
2019-04-29T17:42:09.249Z,40.65
2019-04-29T17:44:43.572Z,38.65
2019-04-29T17:47:31.947Z,43.38
2019-04-29T17:50:15.730Z,43.60
2019-04-29T17:52:45.815Z,46.00
2019-04-29T17:55:25.032Z,42.27
2019-04-29T17:57:59.490Z,46.65
2019-04-29T18:00:55.565Z,44.18
2019-04-29T18:03:20.752Z,42.93
2019-04-29T18:05:59.601Z,39.08
2019-04-29T18:08:31.503Z,44.63
2019-04-29T18:11:08.150Z,41.60
2019-04-29T18:13:36.475Z,46.18
2019-04-29T18:16:17.427Z,43.78
2019-04-29T18:18:46.632Z,42.85
2019-04-29T18:21:22.211Z,47.00
2019-04-29T18:23:59.358Z,43.25
2019-04-29T18:26:36.525Z,42.75
2019-04-29T18:29:08.075Z,42.43
2019-04-29T18:31:39.197Z,38.20
2019-04-29T18:34:09.175Z,44.10
2019-04-29T18:36:39.135Z,41.63
2019-04-29T18:39:11.981Z,39.03
2019-04-29T18:41:41.933Z,41.75
2019-04-29T18:44:19.255Z,45.98
2019-04-29T18:46:53.116Z,41.55
2019-04-29T18:49:15.989Z,40.15
2019-04-29T18:51:46.315Z,37.67
2019-04-29T18:54:16.581Z,42.83
2019-04-29T18:56:46.671Z,40.55
2019-04-29T18:59:21.018Z,42.33
2019-04-29T19:01:48.332Z,44.85
2019-04-29T19:04:20.185Z,44.53
2019-04-29T19:06:51.204Z,46.08
2019-04-29T19:09:25.277Z,52.60
2019-04-29T19:11:55.383Z,46.50
2019-04-29T19:14:28.188Z,42.40
2019-04-29T19:17:01.136Z,49.05
2019-04-29T19:19:30.854Z,44.75
2019-04-29T19:22:00.801Z,49.90
2019-04-29T19:24:36.299Z,47.95
2019-04-29T19:27:09.136Z,49.13
2019-04-29T19:29:38.816Z,51.28
2019-04-29T19:32:07.549Z,51.75
2019-04-29T19:34:42.933Z,53.42
2019-04-29T19:37:09.221Z,51.30
2019-04-29T19:39:39.179Z,52.75
2019-04-29T19:42:09.119Z,52.55
2019-04-29T19:44:39.058Z,56.37
2019-04-29T19:47:10.846Z,50.65
2019-04-29T19:49:44.621Z,58.02
2019-04-29T19:52:19.044Z,60.67
2019-04-29T19:54:45.485Z,56.48
2019-04-29T19:57:15.614Z,56.83
2019-04-29T19:59:51.206Z,55.73
2019-04-29T20:02:17.921Z,58.60
2019-04-29T20:04:52.436Z,58.20
2019-04-29T20:07:22.332Z,63.30
2019-04-29T20:10:03.262Z,60.20
2019-04-29T20:12:26.659Z,59.75
2019-04-29T20:14:59.736Z,64.12
2019-04-29T20:17:36.876Z,62.58
2019-04-29T20:20:12.772Z,62.40
2019-04-29T20:22:48.229Z,63.60
2019-04-29T20:25:16.490Z,64.70
2019-04-29T20:27:46.830Z,61.88
2019-04-29T20:30:20.740Z,69.42
2019-04-29T20:32:48.901Z,65.85
2019-04-29T20:35:19.180Z,67.78
2019-04-29T20:37:55.611Z,72.00
2019-04-29T20:40:21.197Z,66.47
2019-04-29T20:42:51.474Z,66.82
2019-04-29T20:45:27.219Z,67.62
2019-04-29T20:47:54.042Z,72.20
2019-04-29T20:50:26.464Z,72.42
2019-04-29T20:53:05.809Z,64.70
2019-04-29T20:55:36.475Z,67.27
2019-04-29T20:58:07.387Z,70.17
2019-04-29T21:00:38.967Z,68.22
2019-04-29T21:03:11.348Z,69.27
2019-04-29T21:05:48.172Z,72.65
2019-04-29T21:08:16.333Z,70.32
2019-04-29T21:10:48.226Z,64.62
2019-04-29T21:13:33.106Z,66.90
2019-04-29T21:16:05.310Z,65.20
2019-04-29T21:18:37.275Z,64.58
2019-04-29T21:21:07.954Z,64.53
2019-04-29T21:23:38.111Z,68.70
2019-04-29T21:26:08.812Z,67.17
2019-04-29T21:28:41.845Z,65.52
2019-04-29T21:31:11.769Z,66.90
2019-04-29T21:33:42.431Z,64.37
2019-04-29T21:36:20.199Z,69.40
2019-04-29T21:39:08.087Z,68.17
2019-04-29T21:41:45.754Z,65.62
2019-04-29T21:44:15.650Z,68.57
2019-04-29T21:46:45.859Z,64.72
2019-04-29T21:49:16.138Z,66.40
2019-04-29T21:51:49.803Z,66.70
2019-04-29T21:54:17.779Z,66.67
2019-04-29T21:56:48.151Z,66.05
2019-04-29T21:59:18.284Z,62.20
2019-04-29T22:01:48.239Z,60.28
2019-04-29T22:04:17.911Z,64.72
2019-04-29T22:06:47.542Z,64.42
2019-04-29T22:09:18.040Z,67.17
2019-04-29T22:11:48.918Z,60.58
2019-04-29T22:14:19.767Z,71.60
2019-04-29T22:16:54.257Z,70.15
2019-04-29T22:19:24.624Z,67.92
2019-04-29T22:21:57.821Z,65.80
2019-04-29T22:24:26.265Z,65.83
2019-04-29T22:27:04.050Z,66.22
2019-04-29T22:29:31.981Z,62.35
2019-04-29T22:31:59.946Z,63.28
2019-04-29T22:34:29.997Z,62.53
2019-04-29T22:37:01.216Z,66.10
2019-04-29T22:39:31.631Z,64.58
2019-04-29T22:42:05.933Z,67.80
2019-04-29T22:44:36.149Z,61.05
2019-04-29T22:47:07.380Z,62.58
2019-04-29T22:49:37.442Z,61.65
2019-04-29T22:52:08.958Z,63.42
2019-04-29T22:54:40.318Z,57.17
2019-04-29T22:57:10.259Z,56.83
2019-04-29T22:59:40.208Z,63.23
2019-04-29T23:02:10.521Z,57.05
2019-04-29T23:04:40.555Z,56.13
2019-04-29T23:07:10.527Z,52.73
2019-04-29T23:09:41.640Z,52.38
2019-04-29T23:12:17.037Z,54.83
2019-04-29T23:14:44.740Z,49.45
2019-04-29T23:17:15.925Z,51.23
2019-04-29T23:19:50.673Z,52.55
2019-04-29T23:22:27.056Z,48.38
2019-04-29T23:24:58.715Z,49.15
2019-04-29T23:27:28.700Z,48.92
2019-04-29T23:29:58.629Z,50.20
2019-04-29T23:32:28.569Z,49.45
2019-04-29T23:35:01.751Z,46.98
2019-04-29T23:37:30.430Z,40.67
2019-04-29T23:40:00.385Z,39.27
2019-04-29T23:42:30.560Z,38.05
2019-04-29T23:45:00.507Z,40.55
2019-04-29T23:47:30.798Z,37.78
2019-04-29T23:50:00.784Z,34.45
2019-04-29T23:52:30.766Z,36.75
2019-04-29T23:55:00.771Z,30.25
2019-04-29T23:57:48.955Z,35.13
